createdAt,value
2023-04-06T00:02:09.860Z,100.00
2023-04-06T00:04:37.625Z,100.00
2023-04-06T00:07:05.728Z,100.00
2023-04-06T00:09:33.403Z,100.00
2023-04-06T00:12:02.675Z,100.00
2023-04-06T00:14:30.448Z,100.00
2023-04-06T00:16:58.164Z,100.00
2023-04-06T00:19:26.127Z,100.00
2023-04-06T00:21:53.888Z,100.00
2023-04-06T00:24:21.721Z,100.00
2023-04-06T00:26:49.506Z,100.00
2023-04-06T00:29:18.724Z,100.00
2023-04-06T00:31:46.932Z,100.00
2023-04-06T00:34:15.932Z,100.00
2023-04-06T00:36:43.688Z,100.00
2023-04-06T00:39:11.949Z,100.00
2023-04-06T00:41:41.168Z,100.00
2023-04-06T00:44:09.052Z,100.00
2023-04-06T00:46:38.109Z,100.00
2023-04-06T00:49:06.066Z,100.00
2023-04-06T00:51:34.047Z,100.00
2023-04-06T00:54:01.774Z,100.00
2023-04-06T00:56:29.565Z,100.00
2023-04-06T00:58:57.981Z,100.00
2023-04-06T01:01:26.597Z,100.00
2023-04-06T01:03:56.328Z,100.00
2023-04-06T01:06:23.986Z,100.00
2023-04-06T01:08:51.709Z,100.00
2023-04-06T01:11:19.918Z,100.00
2023-04-06T01:13:47.985Z,100.00
2023-04-06T01:16:15.765Z,100.00
2023-04-06T01:18:43.519Z,100.00
2023-04-06T01:21:16.371Z,100.00
2023-04-06T01:23:46.967Z,100.00
2023-04-06T01:26:15.257Z,100.00
2023-04-06T01:28:43.061Z,100.00
2023-04-06T01:31:11.269Z,100.00
2023-04-06T01:33:38.967Z,100.00
2023-04-06T01:36:07.385Z,100.00
2023-04-06T01:38:35.093Z,100.00
2023-04-06T01:41:04.456Z,100.00
2023-04-06T01:43:32.204Z,100.00
2023-04-06T01:45:59.904Z,100.00
2023-04-06T01:48:27.809Z,100.00
2023-04-06T01:50:55.825Z,100.00
2023-04-06T01:53:23.499Z,100.00
2023-04-06T01:55:51.413Z,100.00
2023-04-06T01:58:20.424Z,100.00
2023-04-06T02:00:48.271Z,100.00
2023-04-06T02:03:16.492Z,100.00
2023-04-06T02:05:44.223Z,100.00
2023-04-06T02:08:11.886Z,100.00
2023-04-06T02:10:39.562Z,100.00
2023-04-06T02:13:07.358Z,100.00
2023-04-06T02:15:36.443Z,100.00
2023-04-06T02:18:04.371Z,100.00
2023-04-06T02:20:32.565Z,100.00
2023-04-06T02:23:01.363Z,100.00
2023-04-06T02:25:29.558Z,100.00
2023-04-06T02:27:57.334Z,100.00
2023-04-06T02:30:25.012Z,100.00
2023-04-06T02:32:54.132Z,100.00
2023-04-06T02:35:22.043Z,100.00
2023-04-06T02:37:49.707Z,100.00
2023-04-06T02:40:17.472Z,100.00
2023-04-06T02:42:45.287Z,100.00
2023-04-06T02:45:12.984Z,100.00
2023-04-06T02:47:40.955Z,100.00
2023-04-06T02:50:11.068Z,100.00
2023-04-06T02:52:38.786Z,100.00
2023-04-06T02:55:08.667Z,100.00
2023-04-06T02:57:36.752Z,100.00
2023-04-06T03:00:05.106Z,100.00
2023-04-06T03:02:32.875Z,100.00
2023-04-06T03:05:00.684Z,100.00
2023-04-06T03:07:29.707Z,100.00
2023-04-06T03:09:57.457Z,100.00
2023-04-06T03:12:25.353Z,100.00
2023-04-06T03:14:53.114Z,100.00
2023-04-06T03:17:20.820Z,100.00
2023-04-06T03:19:48.458Z,100.00
2023-04-06T03:22:16.610Z,100.00
2023-04-06T03:24:45.676Z,100.00
2023-04-06T03:27:13.400Z,100.00
2023-04-06T03:29:41.104Z,100.00
2023-04-06T03:32:10.619Z,100.00
2023-04-06T03:34:38.866Z,100.00
2023-04-06T03:37:10.325Z,100.00
2023-04-06T03:39:38.790Z,100.00
2023-04-06T03:42:08.031Z,100.00
2023-04-06T03:44:36.013Z,100.00
2023-04-06T03:47:03.941Z,100.00
2023-04-06T03:49:31.697Z,100.00
2023-04-06T03:51:59.498Z,100.00
2023-04-06T03:54:27.249Z,100.00
2023-04-06T03:56:54.946Z,100.00
2023-04-06T03:59:24.173Z,100.00
2023-04-06T04:01:52.116Z,100.00
2023-04-06T04:04:19.841Z,100.00
2023-04-06T04:06:47.593Z,100.00
2023-04-06T04:09:15.427Z,100.00
2023-04-06T04:11:43.249Z,100.00
2023-04-06T04:14:10.973Z,100.00
2023-04-06T04:16:40.637Z,100.00
2023-04-06T04:19:08.588Z,100.00
2023-04-06T04:21:44.906Z,100.00
2023-04-06T04:24:12.628Z,100.00
2023-04-06T04:26:41.388Z,100.00
2023-04-06T04:29:09.444Z,100.00
2023-04-06T04:31:37.551Z,100.00
2023-04-06T04:34:07.773Z,100.00
2023-04-06T04:36:35.583Z,100.00
2023-04-06T04:39:03.641Z,100.00
2023-04-06T04:41:31.708Z,100.00
2023-04-06T04:43:59.535Z,100.00
2023-04-06T04:46:27.333Z,100.00
2023-04-06T04:48:55.144Z,100.00
2023-04-06T04:51:25.584Z,100.00
2023-04-06T04:53:53.243Z,100.00
2023-04-06T04:56:20.918Z,100.00
2023-04-06T04:58:48.605Z,100.00
2023-04-06T05:01:16.763Z,100.00
2023-04-06T05:03:44.697Z,100.00
2023-04-06T05:06:13.498Z,100.00
2023-04-06T05:08:42.962Z,100.00
2023-04-06T05:11:11.205Z,100.00
2023-04-06T05:13:39.212Z,100.00
2023-04-06T05:16:07.904Z,100.00
2023-04-06T05:18:35.773Z,100.00
2023-04-06T05:21:03.537Z,100.00
2023-04-06T05:23:31.254Z,100.00
2023-04-06T05:26:00.340Z,100.00
2023-04-06T05:28:28.053Z,100.00
2023-04-06T05:30:55.881Z,100.00
2023-04-06T05:33:23.571Z,100.00
2023-04-06T05:35:51.389Z,100.00
2023-04-06T05:38:19.050Z,100.00
2023-04-06T05:40:46.931Z,100.00
2023-04-06T05:43:16.298Z,100.00
2023-04-06T05:45:47.141Z,100.00
2023-04-06T05:48:15.377Z,100.00
2023-04-06T05:50:43.057Z,100.00
2023-04-06T05:53:10.794Z,100.00
2023-04-06T05:55:38.449Z,100.00
2023-04-06T05:58:06.120Z,100.00
2023-04-06T06:00:35.454Z,100.00
2023-04-06T06:03:05.179Z,100.00
2023-04-06T06:05:32.925Z,100.00
2023-04-06T06:08:03.303Z,100.00
2023-04-06T06:10:31.232Z,100.00
2023-04-06T06:12:59.066Z,91.12
2023-04-06T06:15:27.053Z,78.54
2023-04-06T06:17:56.235Z,77.43
2023-04-06T06:20:24.145Z,70.76
2023-04-06T06:22:51.911Z,66.04
2023-04-06T06:25:19.975Z,62.92
2023-04-06T06:27:47.722Z,63.23
2023-04-06T06:30:15.969Z,61.92
2023-04-06T06:32:43.761Z,59.86
2023-04-06T06:35:12.824Z,57.26
2023-04-06T06:37:40.521Z,58.88
2023-04-06T06:40:09.433Z,56.87
2023-04-06T06:42:37.346Z,51.55
2023-04-06T06:45:05.829Z,51.67
2023-04-06T06:47:33.701Z,51.13
2023-04-06T06:50:01.613Z,51.77
2023-04-06T06:52:30.883Z,54.11
2023-04-06T06:54:58.614Z,49.60
2023-04-06T06:57:28.358Z,53.26
2023-04-06T06:59:56.046Z,51.90
2023-04-06T07:02:23.721Z,51.77
2023-04-06T07:04:51.504Z,50.18
2023-04-06T07:07:19.387Z,48.40
2023-04-06T07:09:48.538Z,46.00
2023-04-06T07:12:17.502Z,50.71
2023-04-06T07:14:45.284Z,50.30
2023-04-06T07:17:12.981Z,51.06
2023-04-06T07:19:41.589Z,47.78
2023-04-06T07:22:09.321Z,50.20
2023-04-06T07:24:37.123Z,50.94
2023-04-06T07:27:06.238Z,51.41
2023-04-06T07:29:33.919Z,54.28
2023-04-06T07:32:01.987Z,54.88
2023-04-06T07:34:29.812Z,54.27
2023-04-06T07:36:57.687Z,56.44
2023-04-06T07:39:27.239Z,57.77
2023-04-06T07:41:54.956Z,59.47
2023-04-06T07:44:24.366Z,60.07
2023-04-06T07:46:52.041Z,61.08
2023-04-06T07:49:21.673Z,60.96
2023-04-06T07:51:49.768Z,62.31
2023-04-06T07:54:17.446Z,61.42
2023-04-06T07:56:45.217Z,62.37
2023-04-06T07:59:14.620Z,61.67
2023-04-06T08:01:43.679Z,62.74
2023-04-06T08:04:11.579Z,61.51
2023-04-06T08:06:39.701Z,58.63
2023-04-06T08:09:07.394Z,59.51
2023-04-06T08:11:35.322Z,58.84
2023-04-06T08:14:03.003Z,59.75
2023-04-06T08:16:30.704Z,60.62
2023-04-06T08:18:59.845Z,60.96
2023-04-06T08:21:27.661Z,61.43
2023-04-06T08:23:55.354Z,59.70
2023-04-06T08:26:23.399Z,59.45
2023-04-06T08:28:51.380Z,60.02
2023-04-06T08:31:19.169Z,57.93
2023-04-06T08:33:46.924Z,54.38
2023-04-06T08:36:19.261Z,55.00
2023-04-06T08:38:46.933Z,55.15
2023-04-06T08:41:16.042Z,54.62
2023-04-06T08:43:46.178Z,53.56
2023-04-06T08:46:13.971Z,52.99
2023-04-06T08:48:43.197Z,52.70
2023-04-06T08:51:11.952Z,52.83
2023-04-06T08:53:43.930Z,51.29
2023-04-06T08:56:13.133Z,49.79
2023-04-06T08:58:42.262Z,50.84
2023-04-06T09:01:12.874Z,50.88
2023-04-06T09:03:42.481Z,49.79
2023-04-06T09:06:10.803Z,49.45
2023-04-06T09:08:44.111Z,49.12
2023-04-06T09:11:11.854Z,49.04
2023-04-06T09:13:50.310Z,48.83
2023-04-06T09:16:18.351Z,47.73
2023-04-06T09:18:46.729Z,47.15
2023-04-06T09:21:14.585Z,47.77
2023-04-06T09:23:43.710Z,47.38
2023-04-06T09:26:12.656Z,46.87
2023-04-06T09:28:49.095Z,47.11
2023-04-06T09:31:17.810Z,46.51
2023-04-06T09:33:47.622Z,44.61
2023-04-06T09:36:17.592Z,44.08
2023-04-06T09:38:57.615Z,44.31
2023-04-06T09:41:26.710Z,45.67
2023-04-06T09:44:03.342Z,44.46
2023-04-06T09:46:42.999Z,43.72
2023-04-06T09:49:20.798Z,45.06
2023-04-06T09:51:54.157Z,44.18
2023-04-06T09:54:24.260Z,45.26
2023-04-06T09:56:58.220Z,44.39
2023-04-06T09:59:33.720Z,42.75
2023-04-06T10:02:02.372Z,44.25
2023-04-06T10:04:38.818Z,43.88
2023-04-06T10:07:08.811Z,42.07
2023-04-06T10:09:39.146Z,44.01
2023-04-06T10:12:07.881Z,43.45
2023-04-06T10:14:37.778Z,43.18
2023-04-06T10:17:06.604Z,42.63
2023-04-06T10:19:41.579Z,41.30
2023-04-06T10:22:12.830Z,42.08
2023-04-06T10:24:42.257Z,41.35
2023-04-06T10:27:12.253Z,41.16
2023-04-06T10:29:47.520Z,40.30
2023-04-06T10:32:15.969Z,40.16
2023-04-06T10:34:43.692Z,39.45
2023-04-06T10:37:19.818Z,40.81
2023-04-06T10:39:49.864Z,41.46
2023-04-06T10:42:18.026Z,41.36
2023-04-06T10:44:46.501Z,39.18
2023-04-06T10:47:20.910Z,39.03
2023-04-06T10:49:48.753Z,39.51
2023-04-06T10:52:16.501Z,40.41
2023-04-06T10:54:46.959Z,40.13
2023-04-06T10:57:17.423Z,40.00
2023-04-06T10:59:46.174Z,38.31
2023-04-06T11:02:22.333Z,38.72
2023-04-06T11:04:57.550Z,38.28
2023-04-06T11:07:25.970Z,37.93
2023-04-06T11:10:09.259Z,38.44
2023-04-06T11:12:42.101Z,38.00
2023-04-06T11:15:10.932Z,37.02
2023-04-06T11:17:39.410Z,37.75
2023-04-06T11:20:12.749Z,37.10
2023-04-06T11:22:50.766Z,36.60
2023-04-06T11:25:18.959Z,37.40
2023-04-06T11:27:48.793Z,37.58
2023-04-06T11:30:16.925Z,36.83
2023-04-06T11:32:46.652Z,37.11
2023-04-06T11:35:21.935Z,37.48
2023-04-06T11:37:50.833Z,38.15
2023-04-06T11:40:23.324Z,37.79
2023-04-06T11:42:56.405Z,37.62
2023-04-06T11:45:24.623Z,37.60
2023-04-06T11:47:59.247Z,36.70
2023-04-06T11:50:27.274Z,37.04
2023-04-06T11:53:02.144Z,36.83
2023-04-06T11:55:32.293Z,37.43
2023-04-06T11:58:02.797Z,37.00
2023-04-06T12:00:35.396Z,38.20
2023-04-06T12:03:03.193Z,36.31
2023-04-06T12:05:31.013Z,36.65
2023-04-06T12:08:01.083Z,36.49
2023-04-06T12:10:31.318Z,38.18
2023-04-06T12:12:59.025Z,36.53
2023-04-06T12:15:28.180Z,36.79
2023-04-06T12:17:55.915Z,36.05
2023-04-06T12:20:27.124Z,35.97
2023-04-06T12:22:55.337Z,36.54
2023-04-06T12:25:23.048Z,36.49
2023-04-06T12:27:50.837Z,36.81
2023-04-06T12:30:18.825Z,36.49
2023-04-06T12:32:50.434Z,36.37
2023-04-06T12:35:19.076Z,36.51
2023-04-06T12:37:46.910Z,36.44
2023-04-06T12:40:15.759Z,35.91
2023-04-06T12:42:43.822Z,36.01
2023-04-06T12:45:12.627Z,36.26
2023-04-06T12:47:40.410Z,36.22
2023-04-06T12:50:10.430Z,35.77
2023-04-06T12:52:38.192Z,35.71
2023-04-06T12:55:07.065Z,36.03
2023-04-06T12:57:34.773Z,36.48
2023-04-06T13:00:02.792Z,36.69
2023-04-06T13:02:32.056Z,36.61
2023-04-06T13:05:00.297Z,36.54
2023-04-06T13:07:29.846Z,35.23
2023-04-06T13:09:57.786Z,36.23
2023-04-06T13:12:26.287Z,37.02
2023-04-06T13:14:53.911Z,36.04
2023-04-06T13:17:22.139Z,37.00
2023-04-06T13:19:49.935Z,36.24
2023-04-06T13:22:17.937Z,36.02
2023-04-06T13:24:47.319Z,35.66
2023-04-06T13:27:15.046Z,35.50
2023-04-06T13:29:42.755Z,35.40
2023-04-06T13:32:11.262Z,35.48
2023-04-06T13:34:39.047Z,36.72
2023-04-06T13:37:06.841Z,35.53
2023-04-06T13:39:34.471Z,35.66
2023-04-06T13:42:04.152Z,35.60
2023-04-06T13:44:32.006Z,36.13
2023-04-06T13:46:59.681Z,34.96
2023-04-06T13:49:27.617Z,34.72
2023-04-06T13:51:55.292Z,35.95
2023-04-06T13:54:23.072Z,36.28
2023-04-06T13:56:50.809Z,36.11
2023-04-06T13:59:19.979Z,37.04
2023-04-06T14:01:48.321Z,36.87
2023-04-06T14:04:16.011Z,35.95
2023-04-06T14:06:43.591Z,35.41
2023-04-06T14:09:11.806Z,34.89
2023-04-06T14:11:39.526Z,35.59
2023-04-06T14:14:07.142Z,35.50
2023-04-06T14:16:36.440Z,35.52
2023-04-06T14:19:04.164Z,35.15
2023-04-06T14:21:32.383Z,35.57
2023-04-06T14:24:00.058Z,36.20
2023-04-06T14:26:28.452Z,36.25
2023-04-06T14:28:56.703Z,36.26
2023-04-06T14:31:24.633Z,35.72
2023-04-06T14:33:54.468Z,36.12
2023-04-06T14:36:22.115Z,35.80
2023-04-06T14:38:50.009Z,36.62
2023-04-06T14:41:18.962Z,36.05
2023-04-06T14:43:48.121Z,35.27
2023-04-06T14:46:16.662Z,36.12
2023-04-06T14:48:44.290Z,35.46
2023-04-06T14:51:13.821Z,34.96
2023-04-06T14:53:41.448Z,35.47
2023-04-06T14:56:09.312Z,35.03
2023-04-06T14:58:37.229Z,34.31
2023-04-06T15:01:04.923Z,34.95
2023-04-06T15:03:32.801Z,35.47
2023-04-06T15:06:00.879Z,35.20
2023-04-06T15:08:29.827Z,35.20
2023-04-06T15:11:01.137Z,35.48
2023-04-06T15:13:29.229Z,34.83
2023-04-06T15:15:57.469Z,35.27
2023-04-06T15:18:25.509Z,35.15
2023-04-06T15:20:53.696Z,35.17
2023-04-06T15:23:21.452Z,34.82
2023-04-06T15:25:50.580Z,34.60
2023-04-06T15:28:18.314Z,35.09
2023-04-06T15:30:46.303Z,35.33
2023-04-06T15:33:14.047Z,35.09
2023-04-06T15:35:43.418Z,35.84
2023-04-06T15:38:11.882Z,36.13
2023-04-06T15:40:45.544Z,35.71
2023-04-06T15:43:14.785Z,35.32
2023-04-06T15:45:42.698Z,36.05
2023-04-06T15:48:10.348Z,35.96
2023-04-06T15:50:39.037Z,36.52
2023-04-06T15:53:07.206Z,35.82
2023-04-06T15:55:35.149Z,36.08
2023-04-06T15:58:02.779Z,36.60
2023-04-06T16:00:32.288Z,36.70
2023-04-06T16:03:00.148Z,36.47
2023-04-06T16:05:34.044Z,36.90
2023-04-06T16:08:02.354Z,37.06
2023-04-06T16:10:29.926Z,37.08
2023-04-06T16:12:57.702Z,36.83
2023-04-06T16:15:25.504Z,37.34
2023-04-06T16:17:54.604Z,37.25
2023-04-06T16:20:22.274Z,37.33
2023-04-06T16:22:50.387Z,37.84
2023-04-06T16:25:18.163Z,46.91
2023-04-06T16:27:45.943Z,54.03
2023-04-06T16:30:13.919Z,55.70
2023-04-06T16:32:41.581Z,61.32
2023-04-06T16:35:11.272Z,64.48
2023-04-06T16:37:38.960Z,67.66
2023-04-06T16:40:08.434Z,69.34
2023-04-06T16:42:36.178Z,71.84
2023-04-06T16:45:03.946Z,73.34
2023-04-06T16:47:31.761Z,74.92
2023-04-06T16:50:05.955Z,77.08
2023-04-06T16:52:35.742Z,77.09
2023-04-06T16:55:03.454Z,76.11
2023-04-06T16:57:31.151Z,75.70
2023-04-06T16:59:58.991Z,73.57
2023-04-06T17:02:26.968Z,74.15
2023-04-06T17:04:54.812Z,79.35
2023-04-06T17:07:26.353Z,81.10
2023-04-06T17:09:55.288Z,81.27
2023-04-06T17:12:22.951Z,84.77
2023-04-06T17:14:50.761Z,87.38
2023-04-06T17:17:18.535Z,89.96
2023-04-06T17:19:46.238Z,93.55
2023-04-06T17:22:13.971Z,95.77
2023-04-06T17:24:41.577Z,97.02
2023-04-06T17:27:10.645Z,96.00
2023-04-06T17:29:38.238Z,97.48
2023-04-06T17:32:06.449Z,98.53
2023-04-06T17:34:34.105Z,100.00
2023-04-06T17:37:03.680Z,100.00
2023-04-06T17:39:31.291Z,100.00
2023-04-06T17:41:59.797Z,100.00
2023-04-06T17:44:28.797Z,100.00
2023-04-06T17:46:56.548Z,100.00
2023-04-06T17:49:24.353Z,100.00
2023-04-06T17:51:52.052Z,100.00
2023-04-06T17:54:21.128Z,100.00
2023-04-06T17:56:51.451Z,100.00
2023-04-06T17:59:19.176Z,100.00
2023-04-06T18:01:49.150Z,100.00
2023-04-06T18:04:16.863Z,100.00
2023-04-06T18:06:44.954Z,100.00
2023-04-06T18:09:12.638Z,100.00
2023-04-06T18:11:40.374Z,100.00
2023-04-06T18:14:09.181Z,100.00
2023-04-06T18:16:36.795Z,100.00
2023-04-06T18:19:05.926Z,100.00
2023-04-06T18:21:34.171Z,100.00
2023-04-06T18:24:04.995Z,100.00
2023-04-06T18:26:34.922Z,100.00
2023-04-06T18:29:02.540Z,100.00
2023-04-06T18:31:30.828Z,100.00
2023-04-06T18:33:58.834Z,100.00
2023-04-06T18:36:28.425Z,100.00
2023-04-06T18:38:56.182Z,100.00
2023-04-06T18:41:24.202Z,100.00
2023-04-06T18:43:51.953Z,100.00
2023-04-06T18:46:20.418Z,100.00
2023-04-06T18:48:48.203Z,100.00
2023-04-06T18:51:15.969Z,100.00
2023-04-06T18:53:45.161Z,100.00
2023-04-06T18:56:17.524Z,100.00
2023-04-06T18:58:45.953Z,100.00
2023-04-06T19:01:21.444Z,100.00
2023-04-06T19:03:49.233Z,100.00
2023-04-06T19:06:16.973Z,100.00
2023-04-06T19:08:46.083Z,100.00
2023-04-06T19:11:14.059Z,100.00
2023-04-06T19:13:42.144Z,100.00
2023-04-06T19:16:10.812Z,100.00
2023-04-06T19:18:42.484Z,100.00
2023-04-06T19:21:16.669Z,100.00
2023-04-06T19:23:46.163Z,100.00
2023-04-06T19:26:14.694Z,100.00
2023-04-06T19:28:42.294Z,100.00
2023-04-06T19:31:11.255Z,100.00
2023-04-06T19:33:39.546Z,100.00
2023-04-06T19:36:08.420Z,100.00
2023-04-06T19:38:36.733Z,100.00
2023-04-06T19:41:05.945Z,100.00
2023-04-06T19:43:34.840Z,100.00
2023-04-06T19:46:02.603Z,100.00
2023-04-06T19:48:30.853Z,100.00
2023-04-06T19:50:58.857Z,100.00
2023-04-06T19:53:26.530Z,100.00
2023-04-06T19:55:54.356Z,100.00
2023-04-06T19:58:23.623Z,100.00
2023-04-06T20:00:51.503Z,100.00
2023-04-06T20:03:19.226Z,100.00
2023-04-06T20:05:47.671Z,100.00
2023-04-06T20:08:15.351Z,100.00
2023-04-06T20:10:42.927Z,100.00
2023-04-06T20:13:10.725Z,100.00
2023-04-06T20:15:39.765Z,100.00
2023-04-06T20:18:07.649Z,100.00
2023-04-06T20:20:35.465Z,100.00
2023-04-06T20:23:03.084Z,100.00
2023-04-06T20:25:30.742Z,100.00
2023-04-06T20:27:58.362Z,100.00
2023-04-06T20:30:26.299Z,100.00
2023-04-06T20:32:55.282Z,100.00
2023-04-06T20:35:23.047Z,100.00
2023-04-06T20:37:51.082Z,100.00
2023-04-06T20:40:18.982Z,100.00
2023-04-06T20:42:47.933Z,100.00
2023-04-06T20:45:15.609Z,100.00
2023-04-06T20:47:43.619Z,100.00
2023-04-06T20:50:13.387Z,100.00
2023-04-06T20:52:40.999Z,100.00
2023-04-06T20:55:09.377Z,100.00
2023-04-06T20:57:36.954Z,100.00
2023-04-06T21:00:05.274Z,100.00
2023-04-06T21:02:33.443Z,100.00
2023-04-06T21:05:01.277Z,100.00
2023-04-06T21:07:30.389Z,100.00
2023-04-06T21:09:58.357Z,100.00
2023-04-06T21:12:26.990Z,100.00
2023-04-06T21:14:54.611Z,100.00
2023-04-06T21:17:22.309Z,100.00
2023-04-06T21:19:50.166Z,100.00
2023-04-06T21:22:17.734Z,100.00
2023-04-06T21:24:46.760Z,100.00
2023-04-06T21:27:14.387Z,100.00
2023-04-06T21:29:42.145Z,100.00
2023-04-06T21:32:09.880Z,100.00
2023-04-06T21:34:37.582Z,100.00
2023-04-06T21:37:05.190Z,100.00
2023-04-06T21:39:32.912Z,100.00
2023-04-06T21:42:01.949Z,100.00
2023-04-06T21:44:29.568Z,100.00
2023-04-06T21:46:57.214Z,100.00
2023-04-06T21:49:24.865Z,100.00
2023-04-06T21:51:52.553Z,100.00
2023-04-06T21:54:20.505Z,100.00
2023-04-06T21:56:48.438Z,100.00
2023-04-06T21:59:17.403Z,100.00
2023-04-06T22:01:45.019Z,100.00
2023-04-06T22:04:12.913Z,100.00
2023-04-06T22:06:41.721Z,100.00
2023-04-06T22:09:09.651Z,100.00
2023-04-06T22:11:37.287Z,100.00
2023-04-06T22:14:06.699Z,100.00
2023-04-06T22:16:35.788Z,100.00
2023-04-06T22:19:03.746Z,100.00
2023-04-06T22:21:31.704Z,100.00
2023-04-06T22:23:59.320Z,100.00
2023-04-06T22:26:27.080Z,100.00
2023-04-06T22:28:55.106Z,100.00
2023-04-06T22:31:23.184Z,100.00
2023-04-06T22:33:52.296Z,100.00
2023-04-06T22:36:19.948Z,100.00
2023-04-06T22:38:49.238Z,100.00
2023-04-06T22:41:16.882Z,100.00
2023-04-06T22:43:44.846Z,100.00
2023-04-06T22:46:12.620Z,100.00
2023-04-06T22:48:40.195Z,100.00
2023-04-06T22:51:09.277Z,100.00
2023-04-06T22:53:37.073Z,100.00
2023-04-06T22:56:04.856Z,100.00
2023-04-06T22:58:32.494Z,100.00
2023-04-06T23:01:00.194Z,100.00
2023-04-06T23:03:27.947Z,100.00
2023-04-06T23:05:55.602Z,100.00
2023-04-06T23:08:27.464Z,100.00
2023-04-06T23:10:55.052Z,100.00
2023-04-06T23:13:22.687Z,100.00
2023-04-06T23:15:50.374Z,100.00
2023-04-06T23:18:18.116Z,100.00
2023-04-06T23:20:45.951Z,100.00
2023-04-06T23:23:13.681Z,100.00
2023-04-06T23:25:42.833Z,100.00
2023-04-06T23:28:10.725Z,100.00
2023-04-06T23:30:38.308Z,100.00
2023-04-06T23:33:06.139Z,100.00
2023-04-06T23:35:33.820Z,100.00
2023-04-06T23:38:01.576Z,100.00
2023-04-06T23:40:29.221Z,100.00
2023-04-06T23:42:58.353Z,100.00
2023-04-06T23:45:26.663Z,100.00
2023-04-06T23:47:54.639Z,100.00
2023-04-06T23:50:22.414Z,100.00
2023-04-06T23:52:50.164Z,100.00
2023-04-06T23:55:18.140Z,100.00
2023-04-06T23:57:45.725Z,100.00
